Time;durP1;ratioP1;P1;durP2;ratioP2;P2;SDS_P1;SDS_P2;PMS_P1;PMS_P2;Temp;Humidity;BMP_temperature;BMP_pressure;BME280_temperature;BME280_humidity;BME280_pressure;Samples;Min_cycle;Max_cycle;Signal;HPM_P1;HPM_P2
2021/04/22 00:00:35;;;;;;;12.63;9.15;;;;;;;;;;4895246;29;20476;-70
2021/04/22 00:03:02;;;;;;;11.65;8.80;;;;;;;;;;4895016;29;20056;-71
2021/04/22 00:05:30;;;;;;;12.57;9.63;;;;;;;;;;4879419;29;20052;-70
2021/04/22 00:07:59;;;;;;;12.38;8.85;;;;;;;;;;4910708;29;20081;-70
2021/04/22 00:10:36;;;;;;;13.95;9.15;;;;;;;;;;4880185;29;20052;-69
2021/04/22 00:13:02;;;;;;;16.98;9.25;;;;;;;;;;4899323;29;20084;-70
2021/04/22 00:15:28;;;;;;;14.00;9.55;;;;;;;;;;4883055;29;20112;-70
2021/04/22 00:17:55;;;;;;;12.30;9.68;;;;;;;;;;4883481;29;20448;-69
2021/04/22 00:20:22;;;;;;;10.52;9.10;;;;;;;;;;4868337;29;20052;-69
2021/04/22 00:22:48;;;;;;;15.45;9.55;;;;;;;;;;4914530;29;20053;-70
2021/04/22 00:25:14;;;;;;;11.50;9.32;;;;;;;;;;4899851;29;20064;-70
2021/04/22 00:27:40;;;;;;;12.40;8.60;;;;;;;;;;4909156;29;20081;-71
2021/04/22 00:30:09;;;;;;;14.30;9.80;;;;;;;;;;4915516;29;20045;-72
2021/04/22 00:32:35;;;;;;;11.18;8.95;;;;;;;;;;4878392;29;20057;-70
2021/04/22 00:35:02;;;;;;;12.32;9.35;;;;;;;;;;4881990;29;20052;-71
2021/04/22 00:37:28;;;;;;;13.57;9.85;;;;;;;;;;4900064;29;20057;-69
2021/04/22 00:39:54;;;;;;;12.57;10.20;;;;;;;;;;4916424;29;20063;-70
2021/04/22 00:42:20;;;;;;;13.55;9.52;;;;;;;;;;4931711;29;20060;-69
2021/04/22 00:44:47;;;;;;;13.38;10.07;;;;;;;;;;4917933;29;20088;-70
2021/04/22 00:47:14;;;;;;;14.93;9.77;;;;;;;;;;4885163;29;20052;-70
2021/04/22 00:49:42;;;;;;;13.75;10.95;;;;;;;;;;4915225;29;20063;-71
2021/04/22 00:52:09;;;;;;;16.65;11.93;;;;;;;;;;4915640;29;20052;-71
2021/04/22 00:54:36;;;;;;;17.15;11.68;;;;;;;;;;4883769;29;20427;-71
2021/04/22 00:57:02;;;;;;;14.77;10.98;;;;;;;;;;4930301;29;20084;-71
2021/04/22 00:59:28;;;;;;;18.10;11.80;;;;;;;;;;4916994;29;20048;-71
2021/04/22 01:01:54;;;;;;;13.55;11.40;;;;;;;;;;4900600;29;20053;-70
2021/04/22 01:04:21;;;;;;;15.75;12.07;;;;;;;;;;4916762;29;20049;-71
2021/04/22 01:06:47;;;;;;;18.17;11.00;;;;;;;;;;4910049;29;20053;-71
2021/04/22 01:09:14;;;;;;;16.38;12.25;;;;;;;;;;4908037;29;20072;-71
2021/04/22 01:11:42;;;;;;;16.67;12.07;;;;;;;;;;4910734;29;20085;-70
2021/04/22 01:14:08;;;;;;;17.50;12.68;;;;;;;;;;4911244;29;20060;-70
2021/04/22 01:16:35;;;;;;;19.25;12.43;;;;;;;;;;4910763;29;20049;-70
2021/04/22 01:19:04;;;;;;;16.42;12.13;;;;;;;;;;4911390;29;20059;-70
2021/04/22 01:21:30;;;;;;;17.98;12.85;;;;;;;;;;4920710;29;20567;-70
2021/04/22 01:23:56;;;;;;;18.75;13.38;;;;;;;;;;4911907;29;20077;-70
2021/04/22 01:26:25;;;;;;;15.88;12.55;;;;;;;;;;4893204;29;20559;-70
2021/04/22 01:28:51;;;;;;;15.52;12.60;;;;;;;;;;4909244;29;20048;-69
2021/04/22 01:31:17;;;;;;;14.80;12.10;;;;;;;;;;4896662;29;20092;-70
2021/04/22 01:33:44;;;;;;;16.42;13.15;;;;;;;;;;4893345;29;20048;-71
2021/04/22 01:36:10;;;;;;;17.17;12.88;;;;;;;;;;4905398;29;20048;-70
2021/04/22 01:38:38;;;;;;;17.95;13.20;;;;;;;;;;4897945;29;20057;-70
2021/04/22 01:41:05;;;;;;;16.13;12.82;;;;;;;;;;4897633;29;20474;-70
2021/04/22 01:43:31;;;;;;;15.57;12.95;;;;;;;;;;4882389;29;20049;-70
2021/04/22 01:45:58;;;;;;;16.98;13.02;;;;;;;;;;4896944;29;20100;-70
2021/04/22 01:52:12;;;;;;;17.30;12.65;;;;;;;;;;4898760;29;20123;-70
2021/04/22 01:54:38;;;;;;;16.88;12.80;;;;;;;;;;4881889;29;20048;-70
2021/04/22 01:57:05;;;;;;;19.08;12.52;;;;;;;;;;4897958;29;20057;-70
2021/04/22 01:59:31;;;;;;;18.98;12.25;;;;;;;;;;4898605;29;20068;-70
2021/04/22 02:01:57;;;;;;;16.05;11.68;;;;;;;;;;4881441;29;20068;-70
2021/04/22 02:04:23;;;;;;;17.42;12.68;;;;;;;;;;4881896;29;20053;-70
2021/04/22 02:06:50;;;;;;;15.18;12.18;;;;;;;;;;4897613;29;20078;-70
2021/04/22 02:09:16;;;;;;;18.55;12.80;;;;;;;;;;4913009;29;20057;-70
2021/04/22 02:11:42;;;;;;;15.45;12.80;;;;;;;;;;4912435;29;20096;-70
2021/04/22 02:14:08;;;;;;;15.55;12.35;;;;;;;;;;4865950;29;20491;-70
2021/04/22 02:16:34;;;;;;;18.08;13.82;;;;;;;;;;4897647;29;20056;-70
2021/04/22 02:19:01;;;;;;;18.08;14.10;;;;;;;;;;4912547;29;20508;-70
2021/04/22 02:21:27;;;;;;;24.13;14.88;;;;;;;;;;4912597;29;20499;-70
2021/04/22 02:23:53;;;;;;;18.15;13.05;;;;;;;;;;4897862;29;20082;-70
2021/04/22 02:26:19;;;;;;;20.98;14.88;;;;;;;;;;4880706;29;20400;-70
2021/04/22 02:28:45;;;;;;;18.20;14.20;;;;;;;;;;4896653;29;20063;-70
2021/04/22 02:31:12;;;;;;;16.63;13.43;;;;;;;;;;4897889;29;20053;-70
2021/04/22 02:33:38;;;;;;;21.10;13.35;;;;;;;;;;4896848;29;20052;-70
2021/04/22 02:36:04;;;;;;;18.73;13.88;;;;;;;;;;4897448;29;20076;-69
2021/04/22 02:38:32;;;;;;;18.50;13.82;;;;;;;;;;4897785;29;20558;-70
2021/04/22 02:40:58;;;;;;;17.40;12.85;;;;;;;;;;4896417;29;20467;-70
2021/04/22 02:43:25;;;;;;;22.17;14.10;;;;;;;;;;4896551;29;20464;-70
2021/04/22 02:45:54;;;;;;;15.50;13.18;;;;;;;;;;4895827;29;20084;-70
2021/04/22 02:48:21;;;;;;;20.42;13.55;;;;;;;;;;4896626;29;20431;-70
2021/04/22 02:50:49;;;;;;;20.08;13.50;;;;;;;;;;4896400;29;20052;-70
2021/04/22 02:53:16;;;;;;;15.80;12.93;;;;;;;;;;4897293;29;20108;-70
2021/04/22 02:55:43;;;;;;;19.05;14.02;;;;;;;;;;4895514;29;20496;-70
2021/04/22 02:58:21;;;;;;;16.92;13.60;;;;;;;;;;4868583;29;20048;-70
2021/04/22 03:00:47;;;;;;;19.00;14.13;;;;;;;;;;4896282;29;20568;-71
2021/04/22 03:03:13;;;;;;;16.90;12.65;;;;;;;;;;4895205;23;20048;-73
2021/04/22 03:05:40;;;;;;;17.40;13.40;;;;;;;;;;4916517;29;20056;-73
2021/04/22 03:08:06;;;;;;;22.65;14.50;;;;;;;;;;4916655;29;20056;-73
2021/04/22 03:10:33;;;;;;;17.75;13.18;;;;;;;;;;4915457;29;20119;-73
2021/04/22 03:12:59;;;;;;;16.73;13.32;;;;;;;;;;4916416;29;20048;-73
2021/04/22 03:15:26;;;;;;;17.77;13.07;;;;;;;;;;4916925;29;20374;-73
2021/04/22 03:17:54;;;;;;;17.23;13.18;;;;;;;;;;4920967;29;20063;-73
2021/04/22 03:20:20;;;;;;;19.17;14.38;;;;;;;;;;4916971;29;20123;-73
2021/04/22 03:22:47;;;;;;;19.45;14.07;;;;;;;;;;4915509;29;20048;-74
2021/04/22 03:25:14;;;;;;;17.35;13.65;;;;;;;;;;4916480;29;20052;-73
2021/04/22 03:27:41;;;;;;;15.95;12.73;;;;;;;;;;4915157;29;20471;-73
2021/04/22 03:30:09;;;;;;;19.75;13.98;;;;;;;;;;4916180;29;20111;-73
2021/04/22 03:32:36;;;;;;;17.92;12.75;;;;;;;;;;4915251;29;20107;-73
2021/04/22 03:35:04;;;;;;;19.35;13.77;;;;;;;;;;4914567;29;20059;-74
2021/04/22 03:37:30;;;;;;;20.65;14.43;;;;;;;;;;4914624;29;20048;-73
2021/04/22 03:39:57;;;;;;;22.65;15.25;;;;;;;;;;4914901;29;20463;-74
2021/04/22 03:42:23;;;;;;;18.98;14.20;;;;;;;;;;4914742;29;20470;-73
2021/04/22 03:44:50;;;;;;;21.80;15.40;;;;;;;;;;4915482;29;20056;-73
2021/04/22 03:47:16;;;;;;;19.30;14.25;;;;;;;;;;4916051;29;20499;-74
2021/04/22 03:49:43;;;;;;;21.42;15.05;;;;;;;;;;4914574;29;20078;-73
2021/04/22 03:52:09;;;;;;;20.15;15.63;;;;;;;;;;4914681;29;20491;-73
2021/04/22 03:54:36;;;;;;;20.85;14.60;;;;;;;;;;4914607;29;20047;-73
2021/04/22 03:57:02;;;;;;;21.75;15.02;;;;;;;;;;4914351;29;20115;-73
2021/04/22 03:59:28;;;;;;;21.67;16.58;;;;;;;;;;4914742;29;20048;-73
2021/04/22 04:01:55;;;;;;;28.25;16.65;;;;;;;;;;4915504;29;20574;-73
2021/04/22 04:04:21;;;;;;;20.83;15.73;;;;;;;;;;4915655;29;20426;-74
2021/04/22 04:06:47;;;;;;;23.50;16.95;;;;;;;;;;4915397;29;20052;-73
2021/04/22 04:09:13;;;;;;;24.92;17.17;;;;;;;;;;4916006;29;20490;-73
2021/04/22 04:11:39;;;;;;;24.08;17.45;;;;;;;;;;4915510;29;20084;-73
2021/04/22 04:14:05;;;;;;;25.38;17.90;;;;;;;;;;4915837;29;20092;-74
2021/04/22 04:16:31;;;;;;;20.65;17.33;;;;;;;;;;4929864;29;20599;-73
2021/04/22 04:18:57;;;;;;;26.85;16.95;;;;;;;;;;4915057;29;20401;-73
2021/04/22 04:21:23;;;;;;;22.30;16.88;;;;;;;;;;4915348;29;20138;-73
2021/04/22 04:23:50;;;;;;;25.20;16.65;;;;;;;;;;4915357;29;20571;-74
2021/04/22 04:26:16;;;;;;;23.60;17.67;;;;;;;;;;4915191;29;20186;-73
2021/04/22 04:28:43;;;;;;;25.30;18.60;;;;;;;;;;4930340;29;20579;-74
2021/04/22 04:31:10;;;;;;;25.10;18.48;;;;;;;;;;4915869;29;20055;-74
2021/04/22 04:33:36;;;;;;;24.52;16.85;;;;;;;;;;4915264;29;20048;-74
2021/04/22 04:36:03;;;;;;;25.73;18.17;;;;;;;;;;4929184;29;20060;-73
2021/04/22 04:38:29;;;;;;;27.50;19.30;;;;;;;;;;4930067;29;20056;-73
2021/04/22 04:40:56;;;;;;;27.35;19.15;;;;;;;;;;4915611;29;20472;-73
2021/04/22 04:43:22;;;;;;;26.27;18.40;;;;;;;;;;4915204;29;20259;-73
2021/04/22 04:45:48;;;;;;;24.58;18.70;;;;;;;;;;4915243;29;20052;-73
2021/04/22 04:48:14;;;;;;;25.60;18.65;;;;;;;;;;4915388;29;20112;-73
2021/04/22 04:50:40;;;;;;;25.85;18.48;;;;;;;;;;4915342;29;20538;-73
2021/04/22 04:53:06;;;;;;;26.45;18.65;;;;;;;;;;4915077;29;20052;-73
2021/04/22 04:55:32;;;;;;;29.33;18.48;;;;;;;;;;4913906;29;20107;-73
2021/04/22 04:57:58;;;;;;;24.48;16.95;;;;;;;;;;4917669;29;20060;-73
2021/04/22 05:00:24;;;;;;;27.23;18.30;;;;;;;;;;4918431;29;20546;-73
2021/04/22 05:02:51;;;;;;;24.40;17.70;;;;;;;;;;4918373;29;20052;-73
2021/04/22 05:05:18;;;;;;;25.15;17.92;;;;;;;;;;4918109;29;20052;-73
2021/04/22 05:07:44;;;;;;;28.95;18.75;;;;;;;;;;4918319;29;20092;-73
2021/04/22 05:10:11;;;;;;;25.45;18.13;;;;;;;;;;4918437;29;20056;-73
2021/04/22 05:12:37;;;;;;;30.08;18.25;;;;;;;;;;4901656;29;20056;-74
2021/04/22 05:15:04;;;;;;;26.90;18.40;;;;;;;;;;4917037;29;20554;-73
2021/04/22 05:17:30;;;;;;;29.90;19.17;;;;;;;;;;4932580;29;20143;-73
2021/04/22 05:19:56;;;;;;;26.48;18.88;;;;;;;;;;4917075;29;20088;-73
2021/04/22 05:22:23;;;;;;;30.63;20.30;;;;;;;;;;4918384;29;20063;-73
2021/04/22 05:24:49;;;;;;;26.27;18.77;;;;;;;;;;4918701;29;20497;-73
2021/04/22 05:27:15;;;;;;;30.48;19.58;;;;;;;;;;4917732;29;20056;-73
2021/04/22 05:29:41;;;;;;;28.75;19.27;;;;;;;;;;4917565;29;20418;-70
2021/04/22 05:32:08;;;;;;;30.90;20.00;;;;;;;;;;4917861;29;20491;-71
2021/04/22 05:34:34;;;;;;;29.30;20.42;;;;;;;;;;4917857;29;20048;-70
2021/04/22 05:37:00;;;;;;;25.33;18.95;;;;;;;;;;4908121;29;20056;-71
2021/04/22 05:39:26;;;;;;;29.02;19.88;;;;;;;;;;4907422;29;20044;-69
2021/04/22 05:41:55;;;;;;;26.88;19.65;;;;;;;;;;4907212;29;20064;-69
2021/04/22 05:44:22;;;;;;;28.55;20.70;;;;;;;;;;4907352;29;20041;-70
2021/04/22 05:46:48;;;;;;;32.85;20.77;;;;;;;;;;4902211;29;20053;-70
2021/04/22 05:49:14;;;;;;;26.70;19.10;;;;;;;;;;4910709;29;20104;-70
2021/04/22 05:51:42;;;;;;;24.58;18.73;;;;;;;;;;4903076;29;20104;-70
2021/04/22 05:54:09;;;;;;;23.10;18.30;;;;;;;;;;4905335;29;20048;-70
2021/04/22 05:56:35;;;;;;;26.55;17.40;;;;;;;;;;4904895;29;20052;-70
2021/04/22 05:59:02;;;;;;;28.55;18.00;;;;;;;;;;4906057;29;20479;-70
2021/04/22 06:01:28;;;;;;;23.60;16.90;;;;;;;;;;4904022;29;20085;-70
2021/04/22 06:03:54;;;;;;;26.25;17.88;;;;;;;;;;4904952;29;20048;-70
2021/04/22 06:06:20;;;;;;;22.90;16.58;;;;;;;;;;4903021;29;20100;-70
2021/04/22 06:08:47;;;;;;;24.90;16.75;;;;;;;;;;4905534;29;20135;-70
2021/04/22 06:11:13;;;;;;;22.67;16.83;;;;;;;;;;4903801;29;20056;-70
2021/04/22 06:13:40;;;;;;;26.90;17.60;;;;;;;;;;4902511;29;20570;-71
2021/04/22 06:16:06;;;;;;;30.55;17.00;;;;;;;;;;4901379;29;20056;-70
2021/04/22 06:18:32;;;;;;;24.30;16.83;;;;;;;;;;4902112;29;20108;-70
2021/04/22 06:20:58;;;;;;;24.88;16.95;;;;;;;;;;4901667;29;20111;-70
2021/04/22 06:23:25;;;;;;;22.05;16.70;;;;;;;;;;4901545;29;20075;-71
2021/04/22 06:25:52;;;;;;;23.95;15.75;;;;;;;;;;4901752;29;20108;-69
2021/04/22 06:28:18;;;;;;;24.83;16.05;;;;;;;;;;4901420;29;20104;-70
2021/04/22 06:30:44;;;;;;;23.30;16.35;;;;;;;;;;4902675;29;20060;-69
2021/04/22 06:33:10;;;;;;;28.92;16.88;;;;;;;;;;4901095;29;20555;-69
2021/04/22 06:35:38;;;;;;;23.35;16.02;;;;;;;;;;4902127;29;20479;-69
2021/04/22 06:38:05;;;;;;;23.45;16.58;;;;;;;;;;4902905;29;20567;-68
2021/04/22 06:40:31;;;;;;;23.60;15.68;;;;;;;;;;4906140;29;20057;-68
2021/04/22 06:42:57;;;;;;;20.08;15.02;;;;;;;;;;4900477;29;20056;-69
2021/04/22 06:45:23;;;;;;;24.83;15.98;;;;;;;;;;4901941;29;20197;-69
2021/04/22 06:47:49;;;;;;;26.30;16.10;;;;;;;;;;4900509;29;20112;-69
2021/04/22 06:50:19;;;;;;;19.80;15.85;;;;;;;;;;4902303;29;20494;-68
2021/04/22 06:52:45;;;;;;;24.30;15.63;;;;;;;;;;4901490;29;20471;-70
2021/04/22 06:55:14;;;;;;;26.85;16.13;;;;;;;;;;4906966;29;20538;-69
2021/04/22 06:57:54;;;;;;;19.42;14.60;;;;;;;;;;4904266;29;20420;-69
2021/04/22 07:00:21;;;;;;;19.60;14.40;;;;;;;;;;4899965;29;20056;-69
2021/04/22 07:02:48;;;;;;;24.08;15.30;;;;;;;;;;4902059;29;20067;-69
2021/04/22 07:05:15;;;;;;;25.70;15.45;;;;;;;;;;4903591;29;20068;-68
2021/04/22 07:07:42;;;;;;;22.77;14.27;;;;;;;;;;4901764;29;20479;-69
2021/04/22 07:10:09;;;;;;;19.13;14.20;;;;;;;;;;4900388;29;20099;-68
2021/04/22 07:12:35;;;;;;;27.52;13.75;;;;;;;;;;4902235;29;20044;-67
2021/04/22 07:15:03;;;;;;;21.95;13.50;;;;;;;;;;4900658;29;20057;-68
2021/04/22 07:17:29;;;;;;;18.80;13.02;;;;;;;;;;4901122;29;20411;-68
2021/04/22 07:19:55;;;;;;;20.63;13.43;;;;;;;;;;4899970;29;20060;-67
2021/04/22 07:22:25;;;;;;;19.83;12.50;;;;;;;;;;4901172;29;20106;-69
2021/04/22 07:24:55;;;;;;;20.52;13.68;;;;;;;;;;4901317;29;20092;-67
2021/04/22 07:27:22;;;;;;;21.00;13.30;;;;;;;;;;4900377;29;20151;-70
2021/04/22 07:29:49;;;;;;;17.65;12.50;;;;;;;;;;4903242;29;20104;-71
2021/04/22 07:32:15;;;;;;;19.33;12.40;;;;;;;;;;4905698;29;20059;-70
2021/04/22 07:34:45;;;;;;;19.80;12.48;;;;;;;;;;4905233;29;20056;-71
2021/04/22 07:37:12;;;;;;;20.80;12.30;;;;;;;;;;4898532;29;20440;-71
2021/04/22 07:39:39;;;;;;;17.45;11.65;;;;;;;;;;4901674;29;20119;-71
2021/04/22 07:42:06;;;;;;;19.30;12.77;;;;;;;;;;4903438;29;20415;-72
2021/04/22 07:44:32;;;;;;;21.40;14.00;;;;;;;;;;4923421;29;20408;-72
2021/04/22 07:46:59;;;;;;;18.10;12.30;;;;;;;;;;4904908;29;20103;-71
2021/04/22 07:49:26;;;;;;;26.58;12.88;;;;;;;;;;4901660;29;20487;-71
2021/04/22 07:51:52;;;;;;;19.20;13.63;;;;;;;;;;4904681;29;20063;-69
2021/04/22 07:54:19;;;;;;;17.77;12.32;;;;;;;;;;4900284;29;20431;-70
2021/04/22 07:56:45;;;;;;;21.27;13.65;;;;;;;;;;4908335;29;20200;-70
2021/04/22 07:59:11;;;;;;;18.40;11.50;;;;;;;;;;4902687;29;20049;-69
2021/04/22 08:01:37;;;;;;;18.85;12.13;;;;;;;;;;4917910;29;20060;-69
2021/04/22 08:04:05;;;;;;;18.77;11.70;;;;;;;;;;4899668;29;20048;-68
2021/04/22 08:06:32;;;;;;;18.50;12.30;;;;;;;;;;4902020;29;20305;-69
2021/04/22 08:08:58;;;;;;;19.48;11.32;;;;;;;;;;4899030;29;20052;-68
2021/04/22 08:11:24;;;;;;;21.33;13.05;;;;;;;;;;4903117;29;20052;-69
2021/04/22 08:13:50;;;;;;;17.30;11.82;;;;;;;;;;4900511;29;20100;-70
2021/04/22 08:16:16;;;;;;;20.80;11.52;;;;;;;;;;4904291;29;20048;-69
2021/04/22 08:18:43;;;;;;;16.08;11.68;;;;;;;;;;4914998;29;20102;-69
2021/04/22 08:21:09;;;;;;;18.80;10.30;;;;;;;;;;4903437;29;20056;-71
2021/04/22 08:23:35;;;;;;;19.38;12.32;;;;;;;;;;4903749;29;20044;-69
2021/04/22 08:26:09;;;;;;;16.30;11.35;;;;;;;;;;4901786;29;20079;-69
2021/04/22 08:28:36;;;;;;;18.70;12.40;;;;;;;;;;4900903;29;20460;-69
2021/04/22 08:31:07;;;;;;;15.75;10.70;;;;;;;;;;4900706;29;20082;-70
2021/04/22 08:33:34;;;;;;;19.13;11.40;;;;;;;;;;4905785;29;20051;-69
2021/04/22 08:36:00;;;;;;;15.18;10.75;;;;;;;;;;4903596;29;20056;-69
2021/04/22 08:38:27;;;;;;;17.35;11.45;;;;;;;;;;4906480;29;20048;-69
2021/04/22 08:40:53;;;;;;;19.38;11.32;;;;;;;;;;4903848;29;20061;-69
2021/04/22 08:43:20;;;;;;;17.20;10.77;;;;;;;;;;4905105;29;20052;-69
2021/04/22 08:45:46;;;;;;;19.02;11.05;;;;;;;;;;4905290;29;20127;-69
2021/04/22 08:48:13;;;;;;;16.83;10.52;;;;;;;;;;4906704;29;20107;-69
2021/04/22 08:50:42;;;;;;;17.67;10.90;;;;;;;;;;4919433;29;20056;-69
2021/04/22 08:53:14;;;;;;;16.15;9.88;;;;;;;;;;4909848;29;20111;-69
2021/04/22 08:55:42;;;;;;;15.30;10.45;;;;;;;;;;4905245;29;20058;-69
2021/04/22 08:58:08;;;;;;;15.45;10.65;;;;;;;;;;4905350;29;20056;-70
2021/04/22 09:00:40;;;;;;;18.15;10.38;;;;;;;;;;4905837;29;20583;-69
2021/04/22 09:03:06;;;;;;;16.33;9.85;;;;;;;;;;4933301;23;20470;-68
2021/04/22 09:05:32;;;;;;;15.90;9.10;;;;;;;;;;4933371;29;20133;-68
2021/04/22 09:07:58;;;;;;;16.77;10.18;;;;;;;;;;4915205;29;20048;-69
2021/04/22 09:10:25;;;;;;;12.25;8.68;;;;;;;;;;4928919;29;20044;-69
2021/04/22 09:13:06;;;;;;;14.30;9.68;;;;;;;;;;4933744;29;20513;-69
2021/04/22 09:15:33;;;;;;;15.13;8.90;;;;;;;;;;4938118;29;20044;-69
2021/04/22 09:18:06;;;;;;;15.75;9.10;;;;;;;;;;4934927;29;20059;-69
2021/04/22 09:20:51;;;;;;;15.95;8.80;;;;;;;;;;4924181;29;20051;-70
2021/04/22 09:23:25;;;;;;;16.48;9.13;;;;;;;;;;4940774;29;20055;-69
2021/04/22 09:25:59;;;;;;;13.63;8.43;;;;;;;;;;4921000;29;20574;-69
2021/04/22 09:28:39;;;;;;;14.55;7.25;;;;;;;;;;4925336;29;20052;-69
2021/04/22 09:31:06;;;;;;;17.15;8.82;;;;;;;;;;4940438;29;20126;-69
2021/04/22 09:33:34;;;;;;;10.85;7.25;;;;;;;;;;4925674;29;20102;-69
2021/04/22 09:36:10;;;;;;;12.27;7.43;;;;;;;;;;4921397;29;20062;-69
2021/04/22 09:38:37;;;;;;;10.95;7.18;;;;;;;;;;4923943;29;20466;-69
2021/04/22 09:41:20;;;;;;;12.63;7.10;;;;;;;;;;4921873;29;20044;-69
2021/04/22 09:43:46;;;;;;;14.57;6.60;;;;;;;;;;4908103;29;20055;-70
2021/04/22 09:46:20;;;;;;;12.40;6.47;;;;;;;;;;4939114;29;20083;-69
2021/04/22 09:48:47;;;;;;;15.30;7.47;;;;;;;;;;4916562;29;20056;-69
2021/04/22 09:51:29;;;;;;;17.48;6.97;;;;;;;;;;4903767;29;20101;-69
2021/04/22 09:54:04;;;;;;;9.93;6.47;;;;;;;;;;4929625;29;20376;-69
2021/04/22 09:56:44;;;;;;;12.60;6.55;;;;;;;;;;4909175;29;20048;-69
2021/04/22 09:59:11;;;;;;;11.90;6.88;;;;;;;;;;4932240;29;20118;-68
2021/04/22 10:01:37;;;;;;;11.50;6.43;;;;;;;;;;4926202;29;20197;-69
2021/04/22 10:04:03;;;;;;;13.32;6.53;;;;;;;;;;4914946;29;20055;-69
2021/04/22 10:06:41;;;;;;;10.55;5.72;;;;;;;;;;4897468;29;20449;-68
2021/04/22 10:09:07;;;;;;;9.05;4.70;;;;;;;;;;4928824;29;20055;-68
2021/04/22 10:11:41;;;;;;;8.35;4.95;;;;;;;;;;4915471;29;20519;-67
2021/04/22 10:14:07;;;;;;;14.55;7.47;;;;;;;;;;4919931;29;20052;-68
2021/04/22 10:16:34;;;;;;;8.30;5.15;;;;;;;;;;4919029;29;20526;-67
2021/04/22 10:19:00;;;;;;;12.95;5.15;;;;;;;;;;4889960;29;20058;-68
2021/04/22 10:21:28;;;;;;;14.07;5.50;;;;;;;;;;4903327;29;20515;-68
2021/04/22 10:24:04;;;;;;;8.85;5.50;;;;;;;;;;4926165;29;20047;-67
2021/04/22 10:26:30;;;;;;;13.75;5.18;;;;;;;;;;4913838;29;20079;-68
2021/04/22 10:28:56;;;;;;;9.95;4.80;;;;;;;;;;4907777;29;20056;-68
2021/04/22 10:31:25;;;;;;;10.32;5.10;;;;;;;;;;4924984;29;20051;-68
2021/04/22 10:33:53;;;;;;;14.27;4.90;;;;;;;;;;4909205;29;20088;-67
2021/04/22 10:36:20;;;;;;;10.57;5.15;;;;;;;;;;4897506;29;20067;-67
2021/04/22 10:38:50;;;;;;;6.07;3.40;;;;;;;;;;4908854;29;20079;-69
2021/04/22 10:41:17;;;;;;;6.93;3.85;;;;;;;;;;4905434;29;20511;-68
2021/04/22 10:43:43;;;;;;;8.95;4.60;;;;;;;;;;4923606;29;20578;-68
2021/04/22 10:46:10;;;;;;;13.90;4.78;;;;;;;;;;4898323;29;20076;-68
2021/04/22 10:48:36;;;;;;;9.82;3.70;;;;;;;;;;4914657;29;20058;-68
2021/04/22 10:51:02;;;;;;;6.32;3.80;;;;;;;;;;4925387;29;20099;-67
2021/04/22 10:53:29;;;;;;;10.38;4.13;;;;;;;;;;4898734;29;20492;-67
2021/04/22 10:55:55;;;;;;;18.30;5.15;;;;;;;;;;4896042;29;20055;-67
2021/04/22 10:58:30;;;;;;;10.65;4.20;;;;;;;;;;4926230;29;20119;-68
2021/04/22 11:01:05;;;;;;;9.35;4.15;;;;;;;;;;4899258;29;20091;-68
2021/04/22 11:03:42;;;;;;;8.95;3.78;;;;;;;;;;4923895;29;20048;-68
2021/04/22 11:06:20;;;;;;;7.63;3.47;;;;;;;;;;4909039;29;20134;-69
2021/04/22 11:08:51;;;;;;;8.07;4.68;;;;;;;;;;4893997;29;20467;-69
2021/04/22 11:11:32;;;;;;;6.68;3.13;;;;;;;;;;4909349;29;20152;-69
2021/04/22 11:14:11;;;;;;;8.70;3.90;;;;;;;;;;4925879;29;20055;-69
2021/04/22 11:16:45;;;;;;;8.30;3.10;;;;;;;;;;4897432;29;20507;-70
2021/04/22 11:19:16;;;;;;;3.67;2.40;;;;;;;;;;4928258;29;20048;-71
2021/04/22 11:21:57;;;;;;;7.22;2.85;;;;;;;;;;4910891;29;20100;-69
2021/04/22 11:24:34;;;;;;;3.97;2.22;;;;;;;;;;4894681;29;20103;-69
2021/04/22 11:27:05;;;;;;;4.43;2.03;;;;;;;;;;4925079;29;20058;-69
2021/04/22 11:29:48;;;;;;;6.63;2.85;;;;;;;;;;4898693;29;20048;-68
2021/04/22 11:32:22;;;;;;;5.25;3.05;;;;;;;;;;4908078;29;20055;-67
2021/04/22 11:34:50;;;;;;;7.97;2.67;;;;;;;;;;4925900;29;20052;-69
2021/04/22 11:37:19;;;;;;;5.55;2.10;;;;;;;;;;4904196;29;20213;-69
2021/04/22 11:39:45;;;;;;;2.90;1.63;;;;;;;;;;4926895;29;20082;-69
2021/04/22 11:42:12;;;;;;;5.55;2.35;;;;;;;;;;4908630;29;20495;-70
2021/04/22 11:44:50;;;;;;;7.05;2.70;;;;;;;;;;4895875;29;20056;-70
2021/04/22 11:47:28;;;;;;;4.55;2.45;;;;;;;;;;4915530;29;20118;-71
2021/04/22 11:50:10;;;;;;;7.28;2.80;;;;;;;;;;4890544;29;20063;-69
2021/04/22 11:52:55;;;;;;;4.75;2.80;;;;;;;;;;4926183;29;20111;-67
2021/04/22 11:55:26;;;;;;;7.80;2.72;;;;;;;;;;4924144;29;20052;-67
2021/04/22 11:57:55;;;;;;;4.65;1.73;;;;;;;;;;4908063;29;20075;-67
2021/04/22 12:00:23;;;;;;;3.70;1.67;;;;;;;;;;4926188;29;20118;-67
2021/04/22 12:02:49;;;;;;;6.45;2.20;;;;;;;;;;4910772;29;20404;-67
2021/04/22 12:05:18;;;;;;;5.38;2.08;;;;;;;;;;4926518;29;20123;-67
2021/04/22 12:07:54;;;;;;;4.55;2.08;;;;;;;;;;4910360;29;20090;-67
2021/04/22 12:10:20;;;;;;;3.10;1.90;;;;;;;;;;4904297;29;20115;-67
2021/04/22 12:12:47;;;;;;;5.00;2.20;;;;;;;;;;4935657;29;20577;-67
2021/04/22 12:15:13;;;;;;;5.90;2.30;;;;;;;;;;4938465;29;20102;-67
2021/04/22 12:17:39;;;;;;;5.50;2.17;;;;;;;;;;4900381;29;20051;-67
2021/04/22 12:20:08;;;;;;;5.40;2.30;;;;;;;;;;4935957;29;20143;-67
2021/04/22 12:22:53;;;;;;;4.47;1.95;;;;;;;;;;4931249;29;20052;-67
2021/04/22 12:25:21;;;;;;;5.15;2.20;;;;;;;;;;4915531;29;20106;-67
2021/04/22 12:27:49;;;;;;;6.05;2.38;;;;;;;;;;4931363;29;20056;-67
2021/04/22 12:30:22;;;;;;;5.35;2.33;;;;;;;;;;4904609;29;20130;-67
2021/04/22 12:33:11;;;;;;;7.72;2.58;;;;;;;;;;4935442;29;20086;-68
2021/04/22 12:35:40;;;;;;;4.93;2.22;;;;;;;;;;4931666;29;20048;-68
2021/04/22 12:38:20;;;;;;;6.05;2.50;;;;;;;;;;4905390;29;20059;-68
2021/04/22 12:40:57;;;;;;;6.32;2.30;;;;;;;;;;4930442;29;20352;-68
2021/04/22 12:43:30;;;;;;;5.10;2.40;;;;;;;;;;4920869;29;20056;-68
2021/04/22 12:46:29;;;;;;;3.08;2.30;;;;;;;;;;4925812;29;20043;-68
2021/04/22 12:48:57;;;;;;;7.18;2.33;;;;;;;;;;4913785;29;20130;-68
2021/04/22 12:51:31;;;;;;;5.97;2.65;;;;;;;;;;4930818;29;20161;-68
2021/04/22 12:53:57;;;;;;;5.10;2.50;;;;;;;;;;4917015;29;20052;-69
2021/04/22 12:56:24;;;;;;;3.97;2.65;;;;;;;;;;4933311;29;20059;-68
2021/04/22 12:58:52;;;;;;;4.35;2.47;;;;;;;;;;4914779;29;20095;-68
2021/04/22 13:01:28;;;;;;;5.45;2.28;;;;;;;;;;4931629;29;20087;-68
2021/04/22 13:03:56;;;;;;;3.70;2.70;;;;;;;;;;4933649;29;20070;-68
2021/04/22 13:06:24;;;;;;;6.47;2.75;;;;;;;;;;4920698;29;20416;-69
2021/04/22 13:08:55;;;;;;;3.97;2.47;;;;;;;;;;4921463;29;20103;-69
2021/04/22 13:11:29;;;;;;;5.80;3.03;;;;;;;;;;4922286;29;20047;-69
2021/04/22 13:13:57;;;;;;;4.35;2.22;;;;;;;;;;4904577;29;20107;-69
2021/04/22 13:16:29;;;;;;;5.05;2.28;;;;;;;;;;4913002;29;20055;-68
2021/04/22 13:19:00;;;;;;;6.40;2.65;;;;;;;;;;4911395;29;20052;-69
2021/04/22 13:21:36;;;;;;;5.07;2.78;;;;;;;;;;4914045;29;20460;-69
2021/04/22 13:24:11;;;;;;;8.77;3.55;;;;;;;;;;4929797;29;20060;-69
2021/04/22 13:26:37;;;;;;;6.70;2.67;;;;;;;;;;4902644;29;20114;-68
2021/04/22 13:29:14;;;;;;;5.75;2.60;;;;;;;;;;4909430;29;20479;-68
2021/04/22 13:31:41;;;;;;;5.70;2.50;;;;;;;;;;4912244;29;20710;-68
2021/04/22 13:34:18;;;;;;;4.85;2.33;;;;;;;;;;4911215;29;20466;-68
2021/04/22 13:36:49;;;;;;;6.38;2.63;;;;;;;;;;4928307;29;20051;-69
2021/04/22 13:39:19;;;;;;;5.00;2.10;;;;;;;;;;4933555;29;20043;-70
2021/04/22 13:41:45;;;;;;;6.20;2.50;;;;;;;;;;4897930;29;20507;-69
2021/04/22 13:44:14;;;;;;;6.40;2.20;;;;;;;;;;4928200;29;20051;-69
2021/04/22 13:47:00;;;;;;;4.10;2.40;;;;;;;;;;4901515;29;20052;-69
2021/04/22 13:49:28;;;;;;;4.20;2.05;;;;;;;;;;4911553;29;20571;-68
2021/04/22 13:52:06;;;;;;;5.88;2.35;;;;;;;;;;4916716;29;20047;-70
2021/04/22 13:54:40;;;;;;;6.45;2.53;;;;;;;;;;4906039;29;20084;-70
2021/04/22 13:57:13;;;;;;;6.22;1.90;;;;;;;;;;4928916;29;20099;-70
2021/04/22 13:59:39;;;;;;;4.25;1.88;;;;;;;;;;4928199;29;20088;-69
2021/04/22 14:02:08;;;;;;;4.72;1.80;;;;;;;;;;4886243;29;20503;-69
2021/04/22 14:04:34;;;;;;;3.40;1.73;;;;;;;;;;4927754;29;20459;-68
2021/04/22 14:07:05;;;;;;;3.80;1.50;;;;;;;;;;4905954;29;20114;-67
2021/04/22 14:09:36;;;;;;;4.88;1.77;;;;;;;;;;4901412;29;20102;-68
2021/04/22 14:12:05;;;;;;;4.82;1.83;;;;;;;;;;4927363;29;20087;-69
2021/04/22 14:14:31;;;;;;;5.07;2.38;;;;;;;;;;4912203;29;20075;-68
2021/04/22 14:16:57;;;;;;;4.75;1.90;;;;;;;;;;4926974;29;20438;-68
2021/04/22 14:19:29;;;;;;;4.45;2.03;;;;;;;;;;4898536;29;20055;-67
2021/04/22 14:21:56;;;;;;;5.82;1.80;;;;;;;;;;4910004;29;20086;-68
2021/04/22 14:24:22;;;;;;;4.95;1.38;;;;;;;;;;4926756;29;20471;-69
2021/04/22 14:26:50;;;;;;;7.25;2.03;;;;;;;;;;4908173;29;20115;-69
2021/04/22 14:29:19;;;;;;;3.33;1.92;;;;;;;;;;4926619;29;20058;-68
2021/04/22 14:31:48;;;;;;;3.25;1.30;;;;;;;;;;4900669;29;20095;-69
2021/04/22 14:34:14;;;;;;;3.30;1.55;;;;;;;;;;4925614;29;20488;-69
2021/04/22 14:36:41;;;;;;;7.47;2.03;;;;;;;;;;4911772;29;20515;-70